Portada
METAR-TAF:

METAR-TAF

Aeroports :

Ponta Delgada, Açores, Portugal

latitud: 37-44N, longitud: 025-42W, altitud: 71 m

Observació

L'informe es va fer fa 21 minuts, a les 18:30 UTC
Vent 12 kt del Nord-Oest, variant entre Oest/Nord-Oest i Nord
Temperatura 16°C
Humitat 72%
Pressió 1011 hPa
Visibilitat 10 km o més
Núvols disperses a una alçada de 2000 ft

METAR: LPPD 291830Z 32012KT 290V010 9999 SCT020 16/11 Q1011

Hora: 18:51 (18:51 UTC)

Pronòstic

L'informe es va fer fa 1 hora i 51 minuts, a les 17:00 UTC
Pronòstic vàlid del 29 a les 18 UTC al 30 a les 18 UTC
Vent 10 kt del Nord
Visibilitat 10 km o més
Núvols disperses a una alçada de 2000 ft
Evolucionant progressivament
l' 30 a les 03 UTC al 30 a les 06 UTC
Vent 10 kt del Nord/Nord-Est
Evolucionant progressivament
l' 30 a les 09 UTC al 30 a les 12 UTC
Vent 10 kt del Est

TAF: LPPD 291700Z 2918/3018 35010KT 9999 SCT020 BECMG 3003/3006 03010KT BECMG 3009/3012 08010KT

Observacions i pronòstics meteorològics de més de 4000 aeroports (METAR i TAF).

Les estacions disponibles són els punts grocs i vermells al mapa.

Posi el ratolí al punt desitjat per veure el nom de l'estació.

Feu clic per veure les observacions i els pronòstics meteorològics.

Per canviar el mapa: feu clic els botons verds amb una creu de color negre per apropar; al botó verd amb un guió per allunyar la imatge; o en les fletxes verdes per a mapes adjacents.


METAR-TAF: